DDG YMAY-YMBT
Flight info
| Callsign | DDG |
|---|---|
| Flight time | 0h 18m |
| Altitude | 9000 |
| Route | N0211F090 DCT AY DCT KIWA DCT BDT DCT YKH DCT DSS DCT |
| Aircraft | BE55/L-SBDFGRY/SB1 |
Departure
| Time | 2026-05-04 11:39 |
|---|---|
| Airport | Albury Airport (YMAY) |
Arrival
| Time | 2026-05-04 11:58 |
|---|---|
| Airport | Mount Beauty Airport (YMBT) |
| Time | Latitude | Longitude | Altitude | Speed | Heading |
|---|---|---|---|---|---|
| 2026-05-04 11:31 | -36.07008 | 146.95235 | 549 ft | 0 kts | 2° |
| 2026-05-04 11:34 | -36.07005 | 146.95236 | 545 ft | 0 kts | 30° |
| 2026-05-04 11:35 | -36.07001 | 146.95244 | 547 ft | 2 kts | 93° |
| 2026-05-04 11:35 | -36.06977 | 146.95283 | 547 ft | 12 kts | 2° |
| 2026-05-04 11:35 | -36.06888 | 146.95286 | 547 ft | 14 kts | 2° |
| 2026-05-04 11:35 | -36.06872 | 146.95199 | 547 ft | 12 kts | 261° |
| 2026-05-04 11:36 | -36.06852 | 146.95154 | 549 ft | 2 kts | 359° |
| 2026-05-04 11:36 | -36.06851 | 146.95154 | 549 ft | 0 kts | 0° |
| 2026-05-04 11:37 | -36.06850 | 146.95154 | 551 ft | 3 kts | 0° |
| 2026-05-04 11:37 | -36.06788 | 146.95144 | 547 ft | 7 kts | 353° |
| 2026-05-04 11:37 | -36.06774 | 146.95156 | 547 ft | 0 kts | 79° |
| 2026-05-04 11:38 | -36.06752 | 146.95316 | 547 ft | 55 kts | 82° |
| 2026-05-04 11:38 | -36.06663 | 146.96037 | 546 ft | 110 kts | 82° |
| 2026-05-04 11:38 | -36.06561 | 146.97013 | 758 ft | 117 kts | 82° |
| 2026-05-04 11:39 | -36.06492 | 146.98005 | 1058 ft | 115 kts | 83° |
| 2026-05-04 11:39 | -36.06428 | 146.98979 | 1352 ft | 113 kts | 84° |
| 2026-05-04 11:40 | -36.09582 | 147.01253 | 3363 ft | 113 kts | 231° |
| 2026-05-04 11:41 | -36.10213 | 147.00620 | 3671 ft | 123 kts | 227° |
| 2026-05-04 11:41 | -36.10915 | 147.00009 | 4015 ft | 124 kts | 228° |
| 2026-05-04 11:41 | -36.11584 | 146.99357 | 4410 ft | 121 kts | 229° |
| 2026-05-04 11:41 | -36.12281 | 146.98704 | 4674 ft | 131 kts | 224° |
| 2026-05-04 11:42 | -36.13161 | 146.98245 | 4951 ft | 144 kts | 203° |
| 2026-05-04 11:42 | -36.14212 | 146.98259 | 5226 ft | 157 kts | 178° |
| 2026-05-04 11:42 | -36.15302 | 146.98490 | 5495 ft | 161 kts | 177° |
| 2026-05-04 11:42 | -36.16395 | 146.98734 | 5757 ft | 163 kts | 177° |
| 2026-05-04 11:43 | -36.17516 | 146.98984 | 6024 ft | 164 kts | 177° |
| 2026-05-04 11:43 | -36.18648 | 146.99236 | 6288 ft | 166 kts | 177° |
| 2026-05-04 11:43 | -36.19790 | 146.99491 | 6552 ft | 167 kts | 177° |
| 2026-05-04 11:43 | -36.20941 | 146.99746 | 6799 ft | 169 kts | 177° |
| 2026-05-04 11:44 | -36.22100 | 147.00005 | 7048 ft | 169 kts | 177° |
| 2026-05-04 11:44 | -36.23258 | 147.00157 | 7294 ft | 163 kts | 195° |
| 2026-05-04 11:44 | -36.24294 | 146.99744 | 7543 ft | 152 kts | 219° |
| 2026-05-04 11:44 | -36.25061 | 146.98930 | 7801 ft | 140 kts | 241° |
| 2026-05-04 11:45 | -36.25504 | 146.97897 | 8052 ft | 134 kts | 259° |
| 2026-05-04 11:45 | -36.25623 | 146.96782 | 8303 ft | 129 kts | 276° |
| 2026-05-04 11:45 | -36.25564 | 146.95676 | 8562 ft | 128 kts | 276° |
| 2026-05-04 11:45 | -36.25510 | 146.94579 | 8823 ft | 127 kts | 276° |
| 2026-05-04 11:46 | -36.25452 | 146.93474 | 8998 ft | 133 kts | 276° |
| 2026-05-04 11:46 | -36.25388 | 146.92293 | 9013 ft | 145 kts | 276° |
| 2026-05-04 11:46 | -36.25319 | 146.91005 | 9011 ft | 154 kts | 276° |
| 2026-05-04 11:46 | -36.25249 | 146.89644 | 9011 ft | 162 kts | 276° |
| 2026-05-04 11:47 | -36.25175 | 146.88218 | 9006 ft | 168 kts | 275° |
| 2026-05-04 11:47 | -36.25297 | 146.86774 | 9006 ft | 173 kts | 254° |
| 2026-05-04 11:47 | -36.25966 | 146.85508 | 9014 ft | 182 kts | 230° |
| 2026-05-04 11:47 | -36.27109 | 146.84733 | 9009 ft | 197 kts | 201° |
| 2026-05-04 11:48 | -36.28493 | 146.84512 | 9016 ft | 201 kts | 193° |
| 2026-05-04 11:48 | -36.29875 | 146.84347 | 9035 ft | 203 kts | 191° |
| 2026-05-04 11:48 | -36.31318 | 146.84628 | 8908 ft | 219 kts | 163° |
| 2026-05-04 11:48 | -36.32629 | 146.85661 | 8787 ft | 229 kts | 143° |
| 2026-05-04 11:49 | -36.33833 | 146.86943 | 8664 ft | 226 kts | 142° |
| 2026-05-04 11:49 | -36.35019 | 146.88193 | 8535 ft | 222 kts | 143° |
| 2026-05-04 11:49 | -36.36196 | 146.89423 | 8407 ft | 221 kts | 143° |
| 2026-05-04 11:49 | -36.37367 | 146.90648 | 8279 ft | 220 kts | 143° |
| 2026-05-04 11:50 | -36.38540 | 146.91875 | 8141 ft | 220 kts | 142° |
| 2026-05-04 11:50 | -36.39704 | 146.93096 | 8022 ft | 219 kts | 143° |
| 2026-05-04 11:50 | -36.40869 | 146.94316 | 7893 ft | 219 kts | 143° |
| 2026-05-04 11:50 | -36.42027 | 146.95532 | 7760 ft | 217 kts | 142° |
| 2026-05-04 11:51 | -36.43182 | 146.96741 | 7597 ft | 219 kts | 142° |
| 2026-05-04 11:51 | -36.44364 | 146.97978 | 7239 ft | 224 kts | 142° |
| 2026-05-04 11:51 | -36.45606 | 146.99176 | 6880 ft | 227 kts | 154° |
| 2026-05-04 11:51 | -36.47026 | 147.00055 | 6524 ft | 230 kts | 158° |
| 2026-05-04 11:52 | -36.48458 | 147.00952 | 6144 ft | 231 kts | 156° |
| 2026-05-04 11:52 | -36.49883 | 147.01857 | 5767 ft | 229 kts | 157° |
| 2026-05-04 11:52 | -36.51299 | 147.02748 | 5388 ft | 228 kts | 157° |
| 2026-05-04 11:52 | -36.52709 | 147.03643 | 5014 ft | 226 kts | 154° |
| 2026-05-04 11:53 | -36.54021 | 147.04674 | 4737 ft | 221 kts | 149° |
| 2026-05-04 11:53 | -36.54863 | 147.05393 | 4433 ft | 224 kts | 147° |
| 2026-05-04 11:53 | -36.56576 | 147.06889 | 3953 ft | 219 kts | 147° |
| 2026-05-04 11:53 | -36.57803 | 147.07891 | 3706 ft | 212 kts | 150° |
| 2026-05-04 11:55 | -36.65842 | 147.12746 | 3075 ft | 151 kts | 165° |
| 2026-05-04 11:55 | -36.66799 | 147.13198 | 2870 ft | 140 kts | 159° |
| 2026-05-04 11:56 | -36.67674 | 147.13628 | 2605 ft | 131 kts | 159° |
| 2026-05-04 11:56 | -36.68498 | 147.14012 | 2345 ft | 118 kts | 160° |
| 2026-05-04 11:56 | -36.69249 | 147.14377 | 2024 ft | 116 kts | 159° |
| 2026-05-04 11:56 | -36.69755 | 147.14653 | 1869 ft | 121 kts | 154° |
| 2026-05-04 11:57 | -36.70502 | 147.15128 | 1696 ft | 120 kts | 153° |
| 2026-05-04 11:57 | -36.71243 | 147.15597 | 1551 ft | 119 kts | 150° |
| 2026-05-04 11:57 | -36.71979 | 147.16105 | 1344 ft | 119 kts | 152° |
| 2026-05-04 11:57 | -36.72665 | 147.16568 | 1154 ft | 105 kts | 152° |
| 2026-05-04 11:58 | -36.73235 | 147.16944 | 1129 ft | 26 kts | 149° |
| 2026-05-04 11:58 | -36.73282 | 147.16980 | 1122 ft | 6 kts | 151° |
| 2026-05-04 11:58 | -36.73343 | 147.17003 | 1124 ft | 7 kts | 194° |
| 2026-05-04 11:58 | -36.73358 | 147.16995 | 1125 ft | 0 kts | 172° |
| 2026-05-04 11:59 | -36.73376 | 147.16987 | 1122 ft | 1 kts | 176° |
| 2026-05-04 11:59 | -36.73380 | 147.16991 | 1122 ft | 0 kts | 120° |